sensor_id;sensor_type;location;lat;lon;timestamp;P1;durP1;ratioP1;P2;durP2;ratioP2
52414;SDS011;38340;52.964;6.086;2023-08-01T00:00:33;14.38;;;6.20;;
52414;SDS011;38340;52.964;6.086;2023-08-01T00:02:59;8.35;;;4.22;;
52414;SDS011;38340;52.964;6.086;2023-08-01T00:05:25;7.05;;;4.35;;
52414;SDS011;38340;52.964;6.086;2023-08-01T00:07:51;8.48;;;4.07;;
52414;SDS011;38340;52.964;6.086;2023-08-01T00:10:17;9.18;;;4.22;;
52414;SDS011;38340;52.964;6.086;2023-08-01T00:12:43;13.27;;;4.15;;
52414;SDS011;38340;52.964;6.086;2023-08-01T00:15:09;6.70;;;3.97;;
52414;SDS011;38340;52.964;6.086;2023-08-01T00:17:35;8.52;;;3.92;;
52414;SDS011;38340;52.964;6.086;2023-08-01T00:20:01;7.72;;;3.92;;
52414;SDS011;38340;52.964;6.086;2023-08-01T00:22:27;6.07;;;3.63;;
52414;SDS011;38340;52.964;6.086;2023-08-01T00:24:53;8.65;;;3.88;;
52414;SDS011;38340;52.964;6.086;2023-08-01T00:27:19;6.03;;;3.47;;
52414;SDS011;38340;52.964;6.086;2023-08-01T00:29:44;8.18;;;3.85;;
52414;SDS011;38340;52.964;6.086;2023-08-01T00:32:10;13.48;;;3.63;;
52414;SDS011;38340;52.964;6.086;2023-08-01T00:34:36;9.43;;;4.53;;
52414;SDS011;38340;52.964;6.086;2023-08-01T00:37:02;11.52;;;4.05;;
52414;SDS011;38340;52.964;6.086;2023-08-01T00:39:28;17.75;;;5.35;;
52414;SDS011;38340;52.964;6.086;2023-08-01T00:41:53;12.93;;;4.60;;
52414;SDS011;38340;52.964;6.086;2023-08-01T00:44:19;8.52;;;4.90;;
52414;SDS011;38340;52.964;6.086;2023-08-01T00:46:45;10.32;;;5.43;;
52414;SDS011;38340;52.964;6.086;2023-08-01T00:49:11;9.60;;;5.22;;
52414;SDS011;38340;52.964;6.086;2023-08-01T00:51:37;11.10;;;6.07;;
52414;SDS011;38340;52.964;6.086;2023-08-01T00:54:03;12.65;;;5.30;;
52414;SDS011;38340;52.964;6.086;2023-08-01T00:56:29;12.82;;;5.45;;
52414;SDS011;38340;52.964;6.086;2023-08-01T00:58:54;17.15;;;6.60;;
52414;SDS011;38340;52.964;6.086;2023-08-01T01:01:20;10.73;;;5.88;;
52414;SDS011;38340;52.964;6.086;2023-08-01T01:03:47;17.48;;;6.88;;
52414;SDS011;38340;52.964;6.086;2023-08-01T01:06:14;16.83;;;7.10;;
52414;SDS011;38340;52.964;6.086;2023-08-01T01:08:47;13.23;;;6.85;;
52414;SDS011;38340;52.964;6.086;2023-08-01T01:11:13;15.50;;;7.07;;
52414;SDS011;38340;52.964;6.086;2023-08-01T01:13:38;15.95;;;7.05;;
52414;SDS011;38340;52.964;6.086;2023-08-01T01:16:04;16.10;;;6.95;;
52414;SDS011;38340;52.964;6.086;2023-08-01T01:18:30;20.02;;;7.43;;
52414;SDS011;38340;52.964;6.086;2023-08-01T01:20:56;16.40;;;6.50;;
52414;SDS011;38340;52.964;6.086;2023-08-01T01:23:21;18.33;;;6.80;;
52414;SDS011;38340;52.964;6.086;2023-08-01T01:25:49;16.85;;;7.32;;
52414;SDS011;38340;52.964;6.086;2023-08-01T01:28:16;16.60;;;7.47;;
52414;SDS011;38340;52.964;6.086;2023-08-01T01:30:43;13.52;;;6.82;;
52414;SDS011;38340;52.964;6.086;2023-08-01T01:33:10;15.82;;;6.68;;
52414;SDS011;38340;52.964;6.086;2023-08-01T01:35:37;15.75;;;6.93;;
52414;SDS011;38340;52.964;6.086;2023-08-01T01:38:03;14.82;;;7.15;;
52414;SDS011;38340;52.964;6.086;2023-08-01T01:40:32;21.73;;;7.45;;
52414;SDS011;38340;52.964;6.086;2023-08-01T01:43:01;17.27;;;7.10;;
52414;SDS011;38340;52.964;6.086;2023-08-01T01:45:27;18.98;;;6.55;;
52414;SDS011;38340;52.964;6.086;2023-08-01T01:47:53;15.30;;;6.82;;
52414;SDS011;38340;52.964;6.086;2023-08-01T01:50:19;14.90;;;6.97;;
52414;SDS011;38340;52.964;6.086;2023-08-01T01:52:45;13.80;;;6.45;;
52414;SDS011;38340;52.964;6.086;2023-08-01T01:55:10;14.40;;;6.18;;
52414;SDS011;38340;52.964;6.086;2023-08-01T01:57:36;14.50;;;6.63;;
52414;SDS011;38340;52.964;6.086;2023-08-01T02:00:05;21.20;;;6.80;;
52414;SDS011;38340;52.964;6.086;2023-08-01T02:02:35;16.92;;;6.40;;
52414;SDS011;38340;52.964;6.086;2023-08-01T02:05:01;13.55;;;5.75;;
52414;SDS011;38340;52.964;6.086;2023-08-01T02:07:29;17.45;;;6.40;;
52414;SDS011;38340;52.964;6.086;2023-08-01T02:09:54;17.27;;;7.13;;
52414;SDS011;38340;52.964;6.086;2023-08-01T02:12:20;14.32;;;7.05;;
52414;SDS011;38340;52.964;6.086;2023-08-01T02:14:46;16.75;;;7.03;;
52414;SDS011;38340;52.964;6.086;2023-08-01T02:17:12;18.85;;;7.95;;
52414;SDS011;38340;52.964;6.086;2023-08-01T02:19:37;19.92;;;6.90;;
52414;SDS011;38340;52.964;6.086;2023-08-01T02:22:03;18.00;;;8.20;;
52414;SDS011;38340;52.964;6.086;2023-08-01T02:24:29;16.92;;;7.82;;
52414;SDS011;38340;52.964;6.086;2023-08-01T02:26:55;20.58;;;8.73;;
52414;SDS011;38340;52.964;6.086;2023-08-01T02:29:21;18.50;;;8.70;;
52414;SDS011;38340;52.964;6.086;2023-08-01T02:31:46;18.25;;;8.10;;
52414;SDS011;38340;52.964;6.086;2023-08-01T02:34:12;20.05;;;8.27;;
52414;SDS011;38340;52.964;6.086;2023-08-01T02:36:38;23.67;;;8.55;;
52414;SDS011;38340;52.964;6.086;2023-08-01T02:39:05;23.58;;;8.32;;
52414;SDS011;38340;52.964;6.086;2023-08-01T02:41:31;17.83;;;8.05;;
52414;SDS011;38340;52.964;6.086;2023-08-01T02:43:57;10.95;;;5.32;;
52414;SDS011;38340;52.964;6.086;2023-08-01T02:46:23;10.40;;;3.55;;
52414;SDS011;38340;52.964;6.086;2023-08-01T02:48:49;9.63;;;3.03;;
52414;SDS011;38340;52.964;6.086;2023-08-01T02:51:14;5.82;;;3.17;;
52414;SDS011;38340;52.964;6.086;2023-08-01T02:53:40;4.88;;;2.60;;
52414;SDS011;38340;52.964;6.086;2023-08-01T02:56:06;5.47;;;2.75;;
52414;SDS011;38340;52.964;6.086;2023-08-01T02:58:34;9.48;;;2.75;;
52414;SDS011;38340;52.964;6.086;2023-08-01T03:01:01;8.63;;;2.67;;
52414;SDS011;38340;52.964;6.086;2023-08-01T03:03:32;7.40;;;2.42;;
52414;SDS011;38340;52.964;6.086;2023-08-01T03:05:57;8.38;;;2.95;;
52414;SDS011;38340;52.964;6.086;2023-08-01T03:08:24;6.85;;;2.47;;
52414;SDS011;38340;52.964;6.086;2023-08-01T03:10:50;8.20;;;2.38;;
52414;SDS011;38340;52.964;6.086;2023-08-01T03:13:16;7.40;;;2.40;;
52414;SDS011;38340;52.964;6.086;2023-08-01T03:15:41;8.32;;;3.00;;
52414;SDS011;38340;52.964;6.086;2023-08-01T03:18:07;6.60;;;2.22;;
52414;SDS011;38340;52.964;6.086;2023-08-01T03:20:33;3.92;;;2.20;;
52414;SDS011;38340;52.964;6.086;2023-08-01T03:22:59;10.18;;;2.13;;
52414;SDS011;38340;52.964;6.086;2023-08-01T03:25:25;5.05;;;2.33;;
52414;SDS011;38340;52.964;6.086;2023-08-01T03:27:51;5.80;;;2.30;;
52414;SDS011;38340;52.964;6.086;2023-08-01T03:30:17;8.93;;;2.78;;
52414;SDS011;38340;52.964;6.086;2023-08-01T03:32:43;12.10;;;2.20;;
52414;SDS011;38340;52.964;6.086;2023-08-01T03:35:08;5.60;;;2.45;;
52414;SDS011;38340;52.964;6.086;2023-08-01T03:37:34;6.57;;;2.50;;
52414;SDS011;38340;52.964;6.086;2023-08-01T03:39:59;6.22;;;2.53;;
52414;SDS011;38340;52.964;6.086;2023-08-01T03:42:25;4.30;;;1.92;;
52414;SDS011;38340;52.964;6.086;2023-08-01T03:44:51;8.77;;;2.50;;
52414;SDS011;38340;52.964;6.086;2023-08-01T03:47:16;8.50;;;2.60;;
52414;SDS011;38340;52.964;6.086;2023-08-01T03:49:42;6.45;;;2.55;;
52414;SDS011;38340;52.964;6.086;2023-08-01T03:52:08;6.00;;;2.10;;
52414;SDS011;38340;52.964;6.086;2023-08-01T03:54:33;6.53;;;2.25;;
52414;SDS011;38340;52.964;6.086;2023-08-01T03:57:00;6.03;;;2.58;;
52414;SDS011;38340;52.964;6.086;2023-08-01T03:59:25;6.22;;;2.40;;
52414;SDS011;38340;52.964;6.086;2023-08-01T04:01:51;8.50;;;2.92;;
52414;SDS011;38340;52.964;6.086;2023-08-01T04:04:17;9.75;;;2.45;;
52414;SDS011;38340;52.964;6.086;2023-08-01T04:06:42;5.72;;;2.38;;
52414;SDS011;38340;52.964;6.086;2023-08-01T04:09:08;2.92;;;1.77;;
52414;SDS011;38340;52.964;6.086;2023-08-01T04:11:34;5.68;;;2.08;;
52414;SDS011;38340;52.964;6.086;2023-08-01T04:14:00;6.00;;;2.08;;
52414;SDS011;38340;52.964;6.086;2023-08-01T04:16:26;7.15;;;2.33;;
52414;SDS011;38340;52.964;6.086;2023-08-01T04:18:51;11.02;;;2.78;;
52414;SDS011;38340;52.964;6.086;2023-08-01T04:21:17;7.10;;;2.13;;
52414;SDS011;38340;52.964;6.086;2023-08-01T04:23:43;3.92;;;2.25;;
52414;SDS011;38340;52.964;6.086;2023-08-01T04:26:09;6.28;;;2.50;;
52414;SDS011;38340;52.964;6.086;2023-08-01T04:28:34;5.82;;;2.63;;
52414;SDS011;38340;52.964;6.086;2023-08-01T04:31:00;6.80;;;2.60;;
52414;SDS011;38340;52.964;6.086;2023-08-01T04:33:26;4.70;;;2.50;;
52414;SDS011;38340;52.964;6.086;2023-08-01T04:35:52;5.53;;;2.53;;
52414;SDS011;38340;52.964;6.086;2023-08-01T04:38:18;4.78;;;2.47;;
52414;SDS011;38340;52.964;6.086;2023-08-01T04:40:44;6.15;;;2.65;;
52414;SDS011;38340;52.964;6.086;2023-08-01T04:43:09;7.03;;;2.85;;
52414;SDS011;38340;52.964;6.086;2023-08-01T04:45:36;9.40;;;3.20;;
52414;SDS011;38340;52.964;6.086;2023-08-01T04:48:02;8.38;;;3.20;;
52414;SDS011;38340;52.964;6.086;2023-08-01T04:50:28;11.30;;;3.92;;
52414;SDS011;38340;52.964;6.086;2023-08-01T04:52:53;12.70;;;3.47;;
52414;SDS011;38340;52.964;6.086;2023-08-01T04:55:19;5.90;;;2.42;;
52414;SDS011;38340;52.964;6.086;2023-08-01T04:57:45;7.72;;;3.05;;
52414;SDS011;38340;52.964;6.086;2023-08-01T05:00:11;6.72;;;2.60;;
52414;SDS011;38340;52.964;6.086;2023-08-01T05:02:37;7.18;;;3.05;;
52414;SDS011;38340;52.964;6.086;2023-08-01T05:05:03;5.95;;;3.38;;
52414;SDS011;38340;52.964;6.086;2023-08-01T05:07:29;5.35;;;2.75;;
52414;SDS011;38340;52.964;6.086;2023-08-01T05:09:55;4.80;;;3.03;;
52414;SDS011;38340;52.964;6.086;2023-08-01T05:12:21;5.15;;;3.13;;
52414;SDS011;38340;52.964;6.086;2023-08-01T05:14:47;5.68;;;3.08;;
52414;SDS011;38340;52.964;6.086;2023-08-01T05:17:12;6.13;;;3.35;;
52414;SDS011;38340;52.964;6.086;2023-08-01T05:19:38;8.63;;;3.35;;
52414;SDS011;38340;52.964;6.086;2023-08-01T05:22:04;5.60;;;3.00;;
52414;SDS011;38340;52.964;6.086;2023-08-01T05:24:30;6.03;;;2.90;;
52414;SDS011;38340;52.964;6.086;2023-08-01T05:26:56;6.57;;;2.90;;
52414;SDS011;38340;52.964;6.086;2023-08-01T05:29:21;5.65;;;2.75;;
52414;SDS011;38340;52.964;6.086;2023-08-01T05:31:47;6.82;;;2.60;;
52414;SDS011;38340;52.964;6.086;2023-08-01T05:34:13;7.10;;;2.50;;
52414;SDS011;38340;52.964;6.086;2023-08-01T05:36:38;5.25;;;2.47;;
52414;SDS011;38340;52.964;6.086;2023-08-01T05:39:04;8.77;;;2.50;;
52414;SDS011;38340;52.964;6.086;2023-08-01T05:41:30;7.38;;;2.83;;
52414;SDS011;38340;52.964;6.086;2023-08-01T05:43:56;4.97;;;2.53;;
52414;SDS011;38340;52.964;6.086;2023-08-01T05:46:23;5.75;;;2.60;;
52414;SDS011;38340;52.964;6.086;2023-08-01T05:48:48;6.63;;;3.00;;
52414;SDS011;38340;52.964;6.086;2023-08-01T05:51:14;6.95;;;2.70;;
52414;SDS011;38340;52.964;6.086;2023-08-01T05:53:40;7.22;;;3.13;;
52414;SDS011;38340;52.964;6.086;2023-08-01T05:56:05;7.60;;;3.13;;
52414;SDS011;38340;52.964;6.086;2023-08-01T05:58:31;7.15;;;3.00;;
52414;SDS011;38340;52.964;6.086;2023-08-01T06:00:57;8.18;;;3.20;;
52414;SDS011;38340;52.964;6.086;2023-08-01T06:03:23;8.65;;;3.30;;
52414;SDS011;38340;52.964;6.086;2023-08-01T06:05:48;8.40;;;3.60;;
52414;SDS011;38340;52.964;6.086;2023-08-01T06:08:14;7.22;;;3.35;;
52414;SDS011;38340;52.964;6.086;2023-08-01T06:10:40;8.85;;;3.72;;
52414;SDS011;38340;52.964;6.086;2023-08-01T06:13:07;7.55;;;3.53;;
52414;SDS011;38340;52.964;6.086;2023-08-01T06:15:33;10.10;;;3.33;;
52414;SDS011;38340;52.964;6.086;2023-08-01T06:17:59;8.07;;;4.03;;
52414;SDS011;38340;52.964;6.086;2023-08-01T06:20:24;11.75;;;3.88;;
52414;SDS011;38340;52.964;6.086;2023-08-01T06:22:50;14.98;;;4.20;;
52414;SDS011;38340;52.964;6.086;2023-08-01T06:25:16;38.88;;;4.97;;
52414;SDS011;38340;52.964;6.086;2023-08-01T06:27:41;11.18;;;3.28;;
52414;SDS011;38340;52.964;6.086;2023-08-01T06:30:07;7.97;;;2.75;;
52414;SDS011;38340;52.964;6.086;2023-08-01T06:32:34;3.97;;;2.10;;
52414;SDS011;38340;52.964;6.086;2023-08-01T06:34:59;7.95;;;2.40;;
52414;SDS011;38340;52.964;6.086;2023-08-01T06:37:25;10.93;;;2.70;;
52414;SDS011;38340;52.964;6.086;2023-08-01T06:39:51;8.20;;;2.33;;
52414;SDS011;38340;52.964;6.086;2023-08-01T06:42:16;7.60;;;2.30;;
52414;SDS011;38340;52.964;6.086;2023-08-01T06:44:42;6.63;;;2.40;;
52414;SDS011;38340;52.964;6.086;2023-08-01T06:47:08;5.05;;;2.55;;
52414;SDS011;38340;52.964;6.086;2023-08-01T06:49:34;9.18;;;2.28;;
52414;SDS011;38340;52.964;6.086;2023-08-01T06:51:59;5.90;;;2.17;;
52414;SDS011;38340;52.964;6.086;2023-08-01T06:54:25;6.70;;;2.05;;
52414;SDS011;38340;52.964;6.086;2023-08-01T06:56:51;8.10;;;2.20;;
52414;SDS011;38340;52.964;6.086;2023-08-01T06:59:16;11.02;;;2.72;;
52414;SDS011;38340;52.964;6.086;2023-08-01T07:01:42;6.78;;;2.33;;
52414;SDS011;38340;52.964;6.086;2023-08-01T07:04:12;5.88;;;2.20;;
52414;SDS011;38340;52.964;6.086;2023-08-01T07:06:38;7.80;;;2.65;;
52414;SDS011;38340;52.964;6.086;2023-08-01T07:09:04;8.32;;;2.30;;
52414;SDS011;38340;52.964;6.086;2023-08-01T07:11:30;5.47;;;2.17;;
52414;SDS011;38340;52.964;6.086;2023-08-01T07:13:56;6.65;;;2.30;;
52414;SDS011;38340;52.964;6.086;2023-08-01T07:16:22;6.93;;;2.25;;
52414;SDS011;38340;52.964;6.086;2023-08-01T07:18:48;9.00;;;2.38;;
52414;SDS011;38340;52.964;6.086;2023-08-01T07:21:15;6.65;;;2.60;;
52414;SDS011;38340;52.964;6.086;2023-08-01T07:23:41;7.90;;;2.50;;
52414;SDS011;38340;52.964;6.086;2023-08-01T07:26:07;3.30;;;2.20;;
52414;SDS011;38340;52.964;6.086;2023-08-01T07:28:33;10.25;;;2.97;;
52414;SDS011;38340;52.964;6.086;2023-08-01T07:31:00;10.10;;;3.35;;
52414;SDS011;38340;52.964;6.086;2023-08-01T07:33:27;8.77;;;2.92;;
52414;SDS011;38340;52.964;6.086;2023-08-01T07:35:53;8.30;;;3.05;;
52414;SDS011;38340;52.964;6.086;2023-08-01T07:38:19;6.68;;;2.58;;
52414;SDS011;38340;52.964;6.086;2023-08-01T07:40:44;7.57;;;2.80;;
52414;SDS011;38340;52.964;6.086;2023-08-01T07:43:10;7.10;;;2.85;;
52414;SDS011;38340;52.964;6.086;2023-08-01T07:45:36;6.07;;;2.50;;
52414;SDS011;38340;52.964;6.086;2023-08-01T07:48:02;8.63;;;3.17;;
52414;SDS011;38340;52.964;6.086;2023-08-01T07:50:28;6.22;;;2.40;;
52414;SDS011;38340;52.964;6.086;2023-08-01T07:52:54;5.43;;;2.40;;
52414;SDS011;38340;52.964;6.086;2023-08-01T07:55:20;8.02;;;2.90;;
52414;SDS011;38340;52.964;6.086;2023-08-01T07:57:49;4.60;;;2.42;;
52414;SDS011;38340;52.964;6.086;2023-08-01T08:00:15;7.72;;;2.45;;
52414;SDS011;38340;52.964;6.086;2023-08-01T08:02:41;8.48;;;3.15;;
52414;SDS011;38340;52.964;6.086;2023-08-01T08:05:08;6.75;;;2.95;;
52414;SDS011;38340;52.964;6.086;2023-08-01T08:07:34;11.77;;;3.55;;
52414;SDS011;38340;52.964;6.086;2023-08-01T08:10:01;5.70;;;2.92;;
52414;SDS011;38340;52.964;6.086;2023-08-01T08:12:28;5.97;;;2.67;;
52414;SDS011;38340;52.964;6.086;2023-08-01T08:14:53;7.00;;;3.22;;
52414;SDS011;38340;52.964;6.086;2023-08-01T08:17:19;5.10;;;2.80;;
52414;SDS011;38340;52.964;6.086;2023-08-01T08:19:45;8.65;;;3.00;;
52414;SDS011;38340;52.964;6.086;2023-08-01T08:22:10;5.38;;;2.88;;
52414;SDS011;38340;52.964;6.086;2023-08-01T08:24:36;8.70;;;3.28;;
52414;SDS011;38340;52.964;6.086;2023-08-01T08:27:02;8.07;;;2.92;;
52414;SDS011;38340;52.964;6.086;2023-08-01T08:29:28;6.05;;;3.00;;
52414;SDS011;38340;52.964;6.086;2023-08-01T08:31:54;8.10;;;3.60;;
52414;SDS011;38340;52.964;6.086;2023-08-01T08:34:20;7.75;;;3.17;;
52414;SDS011;38340;52.964;6.086;2023-08-01T08:36:46;7.47;;;3.35;;
52414;SDS011;38340;52.964;6.086;2023-08-01T08:39:11;7.78;;;3.85;;
52414;SDS011;38340;52.964;6.086;2023-08-01T08:41:38;9.70;;;3.47;;
52414;SDS011;38340;52.964;6.086;2023-08-01T08:44:07;8.20;;;3.05;;
52414;SDS011;38340;52.964;6.086;2023-08-01T08:46:42;5.05;;;2.75;;
52414;SDS011;38340;52.964;6.086;2023-08-01T08:49:08;6.38;;;2.95;;
52414;SDS011;38340;52.964;6.086;2023-08-01T08:51:35;11.23;;;3.30;;
52414;SDS011;38340;52.964;6.086;2023-08-01T08:54:03;7.47;;;3.30;;
52414;SDS011;38340;52.964;6.086;2023-08-01T08:56:31;7.65;;;3.70;;
52414;SDS011;38340;52.964;6.086;2023-08-01T08:58:58;7.28;;;3.10;;
52414;SDS011;38340;52.964;6.086;2023-08-01T09:01:25;5.28;;;2.95;;
52414;SDS011;38340;52.964;6.086;2023-08-01T09:03:51;9.00;;;3.40;;
52414;SDS011;38340;52.964;6.086;2023-08-01T09:06:20;7.10;;;3.45;;
52414;SDS011;38340;52.964;6.086;2023-08-01T09:08:51;6.30;;;3.10;;
52414;SDS011;38340;52.964;6.086;2023-08-01T09:11:20;9.90;;;3.15;;
52414;SDS011;38340;52.964;6.086;2023-08-01T09:13:47;8.20;;;4.05;;
52414;SDS011;38340;52.964;6.086;2023-08-01T09:16:14;7.70;;;2.95;;
52414;SDS011;38340;52.964;6.086;2023-08-01T09:18:49;8.23;;;3.67;;
52414;SDS011;38340;52.964;6.086;2023-08-01T09:21:20;6.78;;;3.30;;
52414;SDS011;38340;52.964;6.086;2023-08-01T09:23:46;8.77;;;3.33;;
52414;SDS011;38340;52.964;6.086;2023-08-01T09:26:16;6.70;;;3.50;;
52414;SDS011;38340;52.964;6.086;2023-08-01T09:28:43;6.88;;;4.07;;
52414;SDS011;38340;52.964;6.086;2023-08-01T09:31:09;7.43;;;3.22;;
52414;SDS011;38340;52.964;6.086;2023-08-01T09:33:39;10.60;;;3.63;;
52414;SDS011;38340;52.964;6.086;2023-08-01T09:36:06;11.55;;;3.30;;
52414;SDS011;38340;52.964;6.086;2023-08-01T09:38:36;28.27;;;4.55;;
52414;SDS011;38340;52.964;6.086;2023-08-01T09:41:03;14.68;;;4.13;;
52414;SDS011;38340;52.964;6.086;2023-08-01T09:43:33;12.02;;;4.28;;
52414;SDS011;38340;52.964;6.086;2023-08-01T09:46:01;8.82;;;2.72;;
52414;SDS011;38340;52.964;6.086;2023-08-01T09:48:27;8.95;;;2.65;;
52414;SDS011;38340;52.964;6.086;2023-08-01T09:53:33;6.95;;;3.65;;
52414;SDS011;38340;52.964;6.086;2023-08-01T09:56:02;10.30;;;4.35;;
52414;SDS011;38340;52.964;6.086;2023-08-01T09:58:32;11.77;;;5.28;;
52414;SDS011;38340;52.964;6.086;2023-08-01T10:00:59;13.23;;;5.90;;
52414;SDS011;38340;52.964;6.086;2023-08-01T10:03:29;7.80;;;4.13;;
52414;SDS011;38340;52.964;6.086;2023-08-01T10:05:56;10.27;;;3.72;;
52414;SDS011;38340;52.964;6.086;2023-08-01T10:08:23;9.27;;;3.88;;
52414;SDS011;38340;52.964;6.086;2023-08-01T10:10:49;15.20;;;4.88;;
52414;SDS011;38340;52.964;6.086;2023-08-01T10:13:16;9.35;;;4.25;;
52414;SDS011;38340;52.964;6.086;2023-08-01T10:15:43;9.88;;;4.25;;
52414;SDS011;38340;52.964;6.086;2023-08-01T10:18:09;13.80;;;5.07;;
52414;SDS011;38340;52.964;6.086;2023-08-01T10:20:36;13.05;;;4.13;;
52414;SDS011;38340;52.964;6.086;2023-08-01T10:23:03;16.20;;;4.05;;
52414;SDS011;38340;52.964;6.086;2023-08-01T10:25:31;8.73;;;3.70;;
52414;SDS011;38340;52.964;6.086;2023-08-01T10:27:58;10.95;;;3.40;;
52414;SDS011;38340;52.964;6.086;2023-08-01T10:30:28;11.88;;;3.55;;
52414;SDS011;38340;52.964;6.086;2023-08-01T10:32:55;8.65;;;2.80;;
52414;SDS011;38340;52.964;6.086;2023-08-01T10:35:37;9.98;;;3.08;;
52414;SDS011;38340;52.964;6.086;2023-08-01T10:38:05;8.27;;;3.05;;
52414;SDS011;38340;52.964;6.086;2023-08-01T10:40:32;10.45;;;3.05;;
52414;SDS011;38340;52.964;6.086;2023-08-01T10:43:24;12.05;;;3.17;;
52414;SDS011;38340;52.964;6.086;2023-08-01T10:46:00;7.88;;;2.92;;
52414;SDS011;38340;52.964;6.086;2023-08-01T10:48:27;8.55;;;3.42;;
52414;SDS011;38340;52.964;6.086;2023-08-01T10:50:56;7.93;;;3.20;;
52414;SDS011;38340;52.964;6.086;2023-08-01T10:53:22;6.15;;;2.58;;
52414;SDS011;38340;52.964;6.086;2023-08-01T10:55:48;8.00;;;2.63;;
52414;SDS011;38340;52.964;6.086;2023-08-01T10:58:14;5.97;;;2.72;;
52414;SDS011;38340;52.964;6.086;2023-08-01T11:00:43;9.23;;;2.50;;
52414;SDS011;38340;52.964;6.086;2023-08-01T11:03:09;9.55;;;3.10;;
52414;SDS011;38340;52.964;6.086;2023-08-01T11:05:35;9.40;;;2.92;;
52414;SDS011;38340;52.964;6.086;2023-08-01T11:08:04;14.07;;;3.20;;
52414;SDS011;38340;52.964;6.086;2023-08-01T11:10:31;6.88;;;2.85;;
52414;SDS011;38340;52.964;6.086;2023-08-01T11:12:57;10.13;;;3.03;;
52414;SDS011;38340;52.964;6.086;2023-08-01T11:15:24;5.00;;;2.50;;
52414;SDS011;38340;52.964;6.086;2023-08-01T11:17:51;8.05;;;3.13;;
52414;SDS011;38340;52.964;6.086;2023-08-01T11:20:19;7.28;;;2.90;;
52414;SDS011;38340;52.964;6.086;2023-08-01T11:22:57;10.07;;;3.33;;
52414;SDS011;38340;52.964;6.086;2023-08-01T11:25:35;7.65;;;2.60;;
52414;SDS011;38340;52.964;6.086;2023-08-01T11:28:03;7.18;;;2.75;;
52414;SDS011;38340;52.964;6.086;2023-08-01T11:30:34;8.27;;;3.17;;
52414;SDS011;38340;52.964;6.086;2023-08-01T11:33:00;8.88;;;3.15;;
52414;SDS011;38340;52.964;6.086;2023-08-01T11:35:28;10.13;;;3.10;;
52414;SDS011;38340;52.964;6.086;2023-08-01T11:37:54;7.40;;;2.45;;
52414;SDS011;38340;52.964;6.086;2023-08-01T11:40:20;7.15;;;2.38;;
52414;SDS011;38340;52.964;6.086;2023-08-01T11:42:49;9.07;;;2.42;;
52414;SDS011;38340;52.964;6.086;2023-08-01T11:45:18;5.88;;;2.63;;
52414;SDS011;38340;52.964;6.086;2023-08-01T11:47:45;7.13;;;2.47;;
52414;SDS011;38340;52.964;6.086;2023-08-01T11:50:12;10.82;;;3.25;;
52414;SDS011;38340;52.964;6.086;2023-08-01T11:52:38;6.63;;;2.55;;
52414;SDS011;38340;52.964;6.086;2023-08-01T11:55:04;5.38;;;2.45;;
52414;SDS011;38340;52.964;6.086;2023-08-01T11:57:30;8.32;;;2.78;;
52414;SDS011;38340;52.964;6.086;2023-08-01T11:59:56;7.30;;;3.38;;
52414;SDS011;38340;52.964;6.086;2023-08-01T12:02:26;6.63;;;2.53;;
52414;SDS011;38340;52.964;6.086;2023-08-01T12:04:53;6.70;;;2.13;;
52414;SDS011;38340;52.964;6.086;2023-08-01T12:07:19;7.30;;;2.85;;
52414;SDS011;38340;52.964;6.086;2023-08-01T12:09:55;6.38;;;2.47;;
52414;SDS011;38340;52.964;6.086;2023-08-01T12:12:22;8.43;;;3.05;;
52414;SDS011;38340;52.964;6.086;2023-08-01T12:14:48;8.88;;;2.75;;
52414;SDS011;38340;52.964;6.086;2023-08-01T12:17:14;9.77;;;2.83;;
52414;SDS011;38340;52.964;6.086;2023-08-01T12:19:39;6.57;;;2.25;;
52414;SDS011;38340;52.964;6.086;2023-08-01T12:22:05;6.32;;;2.10;;
52414;SDS011;38340;52.964;6.086;2023-08-01T12:24:31;6.32;;;2.53;;
52414;SDS011;38340;52.964;6.086;2023-08-01T12:26:58;6.35;;;2.38;;
52414;SDS011;38340;52.964;6.086;2023-08-01T12:29:24;5.57;;;2.50;;
52414;SDS011;38340;52.964;6.086;2023-08-01T12:31:50;8.65;;;3.05;;
52414;SDS011;38340;52.964;6.086;2023-08-01T12:34:16;5.50;;;2.60;;
52414;SDS011;38340;52.964;6.086;2023-08-01T12:36:41;8.70;;;2.85;;
52414;SDS011;38340;52.964;6.086;2023-08-01T12:39:07;5.35;;;2.38;;
52414;SDS011;38340;52.964;6.086;2023-08-01T12:41:36;10.82;;;2.75;;
52414;SDS011;38340;52.964;6.086;2023-08-01T12:44:03;6.20;;;2.20;;
52414;SDS011;38340;52.964;6.086;2023-08-01T12:46:29;8.50;;;2.63;;
52414;SDS011;38340;52.964;6.086;2023-08-01T12:48:54;6.25;;;1.80;;
52414;SDS011;38340;52.964;6.086;2023-08-01T12:51:20;5.50;;;2.53;;
52414;SDS011;38340;52.964;6.086;2023-08-01T12:53:46;4.70;;;1.92;;
52414;SDS011;38340;52.964;6.086;2023-08-01T12:56:11;5.47;;;2.05;;
52414;SDS011;38340;52.964;6.086;2023-08-01T12:58:37;5.10;;;1.98;;
52414;SDS011;38340;52.964;6.086;2023-08-01T13:01:03;4.65;;;1.90;;
52414;SDS011;38340;52.964;6.086;2023-08-01T13:03:29;4.28;;;1.67;;
52414;SDS011;38340;52.964;6.086;2023-08-01T13:05:55;4.88;;;2.10;;
52414;SDS011;38340;52.964;6.086;2023-08-01T13:08:22;3.92;;;2.00;;
52414;SDS011;38340;52.964;6.086;2023-08-01T13:10:48;5.53;;;1.92;;
52414;SDS011;38340;52.964;6.086;2023-08-01T13:13:15;4.60;;;1.85;;
52414;SDS011;38340;52.964;6.086;2023-08-01T13:15:41;4.28;;;1.90;;
52414;SDS011;38340;52.964;6.086;2023-08-01T13:18:07;3.60;;;1.90;;
52414;SDS011;38340;52.964;6.086;2023-08-01T13:20:33;4.03;;;1.63;;
52414;SDS011;38340;52.964;6.086;2023-08-01T13:22:58;4.30;;;1.80;;
52414;SDS011;38340;52.964;6.086;2023-08-01T13:25:24;3.33;;;1.77;;
52414;SDS011;38340;52.964;6.086;2023-08-01T13:27:50;4.60;;;2.00;;
52414;SDS011;38340;52.964;6.086;2023-08-01T13:30:15;6.72;;;2.10;;
52414;SDS011;38340;52.964;6.086;2023-08-01T13:32:43;7.55;;;2.10;;
52414;SDS011;38340;52.964;6.086;2023-08-01T13:35:10;5.25;;;2.10;;
52414;SDS011;38340;52.964;6.086;2023-08-01T13:37:36;3.38;;;2.00;;
52414;SDS011;38340;52.964;6.086;2023-08-01T13:40:02;5.68;;;2.35;;
52414;SDS011;38340;52.964;6.086;2023-08-01T13:42:28;4.50;;;2.15;;
52414;SDS011;38340;52.964;6.086;2023-08-01T13:44:54;7.97;;;2.63;;
52414;SDS011;38340;52.964;6.086;2023-08-01T13:47:20;4.53;;;2.13;;
52414;SDS011;38340;52.964;6.086;2023-08-01T13:49:45;3.88;;;2.20;;
52414;SDS011;38340;52.964;6.086;2023-08-01T13:52:11;6.53;;;2.67;;
52414;SDS011;38340;52.964;6.086;2023-08-01T13:54:37;7.22;;;3.03;;
52414;SDS011;38340;52.964;6.086;2023-08-01T13:57:02;5.65;;;2.53;;
52414;SDS011;38340;52.964;6.086;2023-08-01T13:59:28;5.05;;;2.58;;
52414;SDS011;38340;52.964;6.086;2023-08-01T14:01:54;4.65;;;2.60;;
52414;SDS011;38340;52.964;6.086;2023-08-01T14:04:21;4.10;;;2.30;;
52414;SDS011;38340;52.964;6.086;2023-08-01T14:06:47;7.93;;;2.50;;
52414;SDS011;38340;52.964;6.086;2023-08-01T14:09:13;3.40;;;2.22;;
52414;SDS011;38340;52.964;6.086;2023-08-01T14:11:38;4.53;;;2.35;;
52414;SDS011;38340;52.964;6.086;2023-08-01T14:14:04;6.13;;;2.40;;
52414;SDS011;38340;52.964;6.086;2023-08-01T14:16:30;5.88;;;1.95;;
52414;SDS011;38340;52.964;6.086;2023-08-01T14:18:56;2.65;;;1.50;;
52414;SDS011;38340;52.964;6.086;2023-08-01T14:21:23;4.97;;;1.80;;
52414;SDS011;38340;52.964;6.086;2023-08-01T14:23:49;3.80;;;1.55;;
52414;SDS011;38340;52.964;6.086;2023-08-01T14:26:15;2.95;;;1.70;;
52414;SDS011;38340;52.964;6.086;2023-08-01T14:28:41;5.05;;;1.83;;
52414;SDS011;38340;52.964;6.086;2023-08-01T14:31:06;4.10;;;1.58;;
52414;SDS011;38340;52.964;6.086;2023-08-01T14:33:33;3.90;;;1.77;;
52414;SDS011;38340;52.964;6.086;2023-08-01T14:35:59;5.25;;;2.25;;
52414;SDS011;38340;52.964;6.086;2023-08-01T14:38:25;4.15;;;2.08;;
52414;SDS011;38340;52.964;6.086;2023-08-01T14:40:54;4.53;;;2.13;;